sensor_id;sensor_type;location;lat;lon;timestamp;temperature;humidity
5055;DHT22;13829;48.990;8.346;2023-06-22T00:01:25;22.10;99.90
5055;DHT22;13829;48.990;8.346;2023-06-22T00:03:52;21.90;99.90
5055;DHT22;13829;48.990;8.346;2023-06-22T00:06:21;22.10;99.90
5055;DHT22;13829;48.990;8.346;2023-06-22T00:08:48;22.10;99.90
5055;DHT22;13829;48.990;8.346;2023-06-22T00:11:16;22.10;99.90
5055;DHT22;13829;48.990;8.346;2023-06-22T00:13:43;22.10;99.90
5055;DHT22;13829;48.990;8.346;2023-06-22T00:16:10;22.00;99.90
5055;DHT22;13829;48.990;8.346;2023-06-22T00:18:37;22.00;99.90
5055;DHT22;13829;48.990;8.346;2023-06-22T00:21:04;22.00;99.90
5055;DHT22;13829;48.990;8.346;2023-06-22T00:23:32;22.00;99.90
5055;DHT22;13829;48.990;8.346;2023-06-22T00:25:59;22.00;99.90
5055;DHT22;13829;48.990;8.346;2023-06-22T00:28:28;22.00;99.90
5055;DHT22;13829;48.990;8.346;2023-06-22T00:30:55;22.10;99.90
5055;DHT22;13829;48.990;8.346;2023-06-22T00:33:22;22.20;99.90
5055;DHT22;13829;48.990;8.346;2023-06-22T00:35:49;22.20;99.90
5055;DHT22;13829;48.990;8.346;2023-06-22T00:38:18;22.10;99.90
5055;DHT22;13829;48.990;8.346;2023-06-22T00:40:45;21.90;99.90
5055;DHT22;13829;48.990;8.346;2023-06-22T00:43:12;21.70;99.90
5055;DHT22;13829;48.990;8.346;2023-06-22T00:45:40;21.50;99.90
5055;DHT22;13829;48.990;8.346;2023-06-22T00:48:08;21.40;99.90
5055;DHT22;13829;48.990;8.346;2023-06-22T00:50:35;21.40;99.90
5055;DHT22;13829;48.990;8.346;2023-06-22T00:53:05;21.30;99.90
5055;DHT22;13829;48.990;8.346;2023-06-22T00:55:34;21.40;99.90
5055;DHT22;13829;48.990;8.346;2023-06-22T00:58:04;21.30;99.90
5055;DHT22;13829;48.990;8.346;2023-06-22T01:00:36;21.30;99.90
5055;DHT22;13829;48.990;8.346;2023-06-22T01:03:05;21.40;99.90
5055;DHT22;13829;48.990;8.346;2023-06-22T01:05:34;21.10;99.90
5055;DHT22;13829;48.990;8.346;2023-06-22T01:08:14;21.10;99.90
5055;DHT22;13829;48.990;8.346;2023-06-22T01:10:52;21.00;99.90
5055;DHT22;13829;48.990;8.346;2023-06-22T01:13:28;20.90;99.90
5055;DHT22;13829;48.990;8.346;2023-06-22T01:16:02;20.80;99.90
5055;DHT22;13829;48.990;8.346;2023-06-22T01:18:35;20.80;99.90
5055;DHT22;13829;48.990;8.346;2023-06-22T01:21:07;20.90;99.90
5055;DHT22;13829;48.990;8.346;2023-06-22T01:23:51;20.70;99.90
5055;DHT22;13829;48.990;8.346;2023-06-22T01:26:33;20.70;99.90
5055;DHT22;13829;48.990;8.346;2023-06-22T01:29:08;20.70;99.90
5055;DHT22;13829;48.990;8.346;2023-06-22T01:31:39;20.70;99.90
5055;DHT22;13829;48.990;8.346;2023-06-22T01:34:09;20.60;99.90
5055;DHT22;13829;48.990;8.346;2023-06-22T01:36:38;20.60;99.90
5055;DHT22;13829;48.990;8.346;2023-06-22T01:39:07;20.50;99.90
5055;DHT22;13829;48.990;8.346;2023-06-22T01:41:37;20.50;99.90
5055;DHT22;13829;48.990;8.346;2023-06-22T01:44:06;20.40;99.90
5055;DHT22;13829;48.990;8.346;2023-06-22T01:46:36;20.40;99.90
5055;DHT22;13829;48.990;8.346;2023-06-22T01:49:05;20.40;99.90
5055;DHT22;13829;48.990;8.346;2023-06-22T01:51:33;20.50;99.90
5055;DHT22;13829;48.990;8.346;2023-06-22T01:54:01;20.40;99.90
5055;DHT22;13829;48.990;8.346;2023-06-22T01:56:28;20.40;99.90
5055;DHT22;13829;48.990;8.346;2023-06-22T01:59:00;20.40;99.90
5055;DHT22;13829;48.990;8.346;2023-06-22T02:01:41;20.30;99.90
5055;DHT22;13829;48.990;8.346;2023-06-22T02:04:13;20.30;99.90
5055;DHT22;13829;48.990;8.346;2023-06-22T02:06:47;20.30;99.90
5055;DHT22;13829;48.990;8.346;2023-06-22T02:09:19;20.40;99.90
5055;DHT22;13829;48.990;8.346;2023-06-22T02:11:51;20.40;99.90
5055;DHT22;13829;48.990;8.346;2023-06-22T02:14:21;20.40;99.90
5055;DHT22;13829;48.990;8.346;2023-06-22T02:16:52;20.40;99.90
5055;DHT22;13829;48.990;8.346;2023-06-22T02:19:23;20.40;99.90
5055;DHT22;13829;48.990;8.346;2023-06-22T02:21:50;20.30;99.90
5055;DHT22;13829;48.990;8.346;2023-06-22T02:24:17;20.60;99.90
5055;DHT22;13829;48.990;8.346;2023-06-22T02:26:44;20.40;99.90
5055;DHT22;13829;48.990;8.346;2023-06-22T02:29:11;20.40;99.90
5055;DHT22;13829;48.990;8.346;2023-06-22T02:31:40;20.40;99.90
5055;DHT22;13829;48.990;8.346;2023-06-22T02:34:09;20.30;99.90
5055;DHT22;13829;48.990;8.346;2023-06-22T02:36:36;20.40;99.90
5055;DHT22;13829;48.990;8.346;2023-06-22T02:39:03;20.30;99.90
5055;DHT22;13829;48.990;8.346;2023-06-22T02:41:30;20.30;99.90
5055;DHT22;13829;48.990;8.346;2023-06-22T02:43:57;20.30;99.90
5055;DHT22;13829;48.990;8.346;2023-06-22T02:46:24;20.30;99.90
5055;DHT22;13829;48.990;8.346;2023-06-22T02:48:50;20.20;99.90
5055;DHT22;13829;48.990;8.346;2023-06-22T02:51:19;20.20;99.90
5055;DHT22;13829;48.990;8.346;2023-06-22T02:53:46;20.20;99.90
5055;DHT22;13829;48.990;8.346;2023-06-22T02:56:13;20.20;99.90
5055;DHT22;13829;48.990;8.346;2023-06-22T02:58:39;20.20;99.90
5055;DHT22;13829;48.990;8.346;2023-06-22T03:01:09;20.40;99.90
5055;DHT22;13829;48.990;8.346;2023-06-22T03:03:38;20.30;99.90
5055;DHT22;13829;48.990;8.346;2023-06-22T03:06:05;20.30;99.90
5055;DHT22;13829;48.990;8.346;2023-06-22T03:08:33;20.20;99.90
5055;DHT22;13829;48.990;8.346;2023-06-22T03:11:00;20.20;99.90
5055;DHT22;13829;48.990;8.346;2023-06-22T03:13:27;20.30;99.90
5055;DHT22;13829;48.990;8.346;2023-06-22T03:15:54;20.20;99.90
5055;DHT22;13829;48.990;8.346;2023-06-22T03:18:21;20.20;99.90
5055;DHT22;13829;48.990;8.346;2023-06-22T03:20:48;20.20;99.90
5055;DHT22;13829;48.990;8.346;2023-06-22T03:23:15;20.20;99.90
5055;DHT22;13829;48.990;8.346;2023-06-22T03:25:44;20.10;99.90
5055;DHT22;13829;48.990;8.346;2023-06-22T03:28:11;20.10;99.90
5055;DHT22;13829;48.990;8.346;2023-06-22T03:30:38;20.10;99.90
5055;DHT22;13829;48.990;8.346;2023-06-22T03:33:05;20.00;99.90
5055;DHT22;13829;48.990;8.346;2023-06-22T03:35:32;20.00;99.90
5055;DHT22;13829;48.990;8.346;2023-06-22T03:37:58;20.00;99.90
5055;DHT22;13829;48.990;8.346;2023-06-22T03:40:25;20.00;99.90
5055;DHT22;13829;48.990;8.346;2023-06-22T03:42:54;20.00;99.90
5055;DHT22;13829;48.990;8.346;2023-06-22T03:45:21;20.00;99.90
5055;DHT22;13829;48.990;8.346;2023-06-22T03:47:48;20.00;99.90
5055;DHT22;13829;48.990;8.346;2023-06-22T03:50:16;20.20;99.90
5055;DHT22;13829;48.990;8.346;2023-06-22T03:52:45;20.10;99.90
5055;DHT22;13829;48.990;8.346;2023-06-22T03:55:14;20.10;99.90
5055;DHT22;13829;48.990;8.346;2023-06-22T03:57:42;20.10;99.90
5055;DHT22;13829;48.990;8.346;2023-06-22T04:00:12;20.10;99.90
5055;DHT22;13829;48.990;8.346;2023-06-22T04:02:41;20.10;99.90
5055;DHT22;13829;48.990;8.346;2023-06-22T04:05:08;20.10;99.90
5055;DHT22;13829;48.990;8.346;2023-06-22T04:07:36;20.20;99.90
5055;DHT22;13829;48.990;8.346;2023-06-22T04:10:06;20.20;99.90
5055;DHT22;13829;48.990;8.346;2023-06-22T04:12:33;20.30;99.90
5055;DHT22;13829;48.990;8.346;2023-06-22T04:15:00;20.30;99.90
5055;DHT22;13829;48.990;8.346;2023-06-22T04:17:29;20.40;99.90
5055;DHT22;13829;48.990;8.346;2023-06-22T04:19:56;20.40;99.90
5055;DHT22;13829;48.990;8.346;2023-06-22T04:22:23;20.40;99.90
5055;DHT22;13829;48.990;8.346;2023-06-22T04:24:49;20.50;99.90
5055;DHT22;13829;48.990;8.346;2023-06-22T04:27:18;20.60;99.90
5055;DHT22;13829;48.990;8.346;2023-06-22T04:29:45;20.60;99.90
5055;DHT22;13829;48.990;8.346;2023-06-22T04:32:14;20.60;99.90
5055;DHT22;13829;48.990;8.346;2023-06-22T04:34:43;20.60;99.90
5055;DHT22;13829;48.990;8.346;2023-06-22T04:37:10;20.80;99.90
5055;DHT22;13829;48.990;8.346;2023-06-22T04:39:41;20.70;99.90
5055;DHT22;13829;48.990;8.346;2023-06-22T04:42:08;20.80;99.90
5055;DHT22;13829;48.990;8.346;2023-06-22T04:44:35;20.70;99.90
5055;DHT22;13829;48.990;8.346;2023-06-22T04:47:02;20.70;99.90
5055;DHT22;13829;48.990;8.346;2023-06-22T04:49:34;20.70;99.90
5055;DHT22;13829;48.990;8.346;2023-06-22T04:52:06;20.70;99.90
5055;DHT22;13829;48.990;8.346;2023-06-22T04:54:37;20.70;99.90
5055;DHT22;13829;48.990;8.346;2023-06-22T04:57:08;20.80;99.90
5055;DHT22;13829;48.990;8.346;2023-06-22T04:59:35;20.90;99.90
5055;DHT22;13829;48.990;8.346;2023-06-22T05:02:07;20.90;99.90
5055;DHT22;13829;48.990;8.346;2023-06-22T05:04:35;21.00;99.90
5055;DHT22;13829;48.990;8.346;2023-06-22T05:07:07;21.20;99.90
5055;DHT22;13829;48.990;8.346;2023-06-22T05:09:34;21.30;99.90
5055;DHT22;13829;48.990;8.346;2023-06-22T05:12:02;21.40;99.90
5055;DHT22;13829;48.990;8.346;2023-06-22T05:14:30;21.50;99.90
5055;DHT22;13829;48.990;8.346;2023-06-22T05:16:57;21.60;99.90
5055;DHT22;13829;48.990;8.346;2023-06-22T05:19:29;21.60;99.90
5055;DHT22;13829;48.990;8.346;2023-06-22T05:21:58;21.60;99.90
5055;DHT22;13829;48.990;8.346;2023-06-22T05:24:27;21.80;99.90
5055;DHT22;13829;48.990;8.346;2023-06-22T05:26:53;21.80;99.90
5055;DHT22;13829;48.990;8.346;2023-06-22T05:29:22;21.90;99.90
5055;DHT22;13829;48.990;8.346;2023-06-22T05:31:49;21.90;99.90
5055;DHT22;13829;48.990;8.346;2023-06-22T05:34:16;21.80;99.90
5055;DHT22;13829;48.990;8.346;2023-06-22T05:36:43;21.80;99.90
5055;DHT22;13829;48.990;8.346;2023-06-22T05:39:13;21.90;99.90
5055;DHT22;13829;48.990;8.346;2023-06-22T05:41:43;22.20;99.90
5055;DHT22;13829;48.990;8.346;2023-06-22T05:44:13;22.30;99.90
5055;DHT22;13829;48.990;8.346;2023-06-22T05:46:41;22.30;99.90
5055;DHT22;13829;48.990;8.346;2023-06-22T05:49:09;22.50;99.90
5055;DHT22;13829;48.990;8.346;2023-06-22T05:51:36;22.70;99.90
5055;DHT22;13829;48.990;8.346;2023-06-22T05:54:03;22.80;99.90
5055;DHT22;13829;48.990;8.346;2023-06-22T05:56:30;22.80;99.90
5055;DHT22;13829;48.990;8.346;2023-06-22T05:58:59;22.90;99.90
5055;DHT22;13829;48.990;8.346;2023-06-22T06:01:26;22.90;99.90
5055;DHT22;13829;48.990;8.346;2023-06-22T06:03:53;23.00;99.90
5055;DHT22;13829;48.990;8.346;2023-06-22T06:06:19;23.00;99.90
5055;DHT22;13829;48.990;8.346;2023-06-22T06:08:48;23.00;99.90
5055;DHT22;13829;48.990;8.346;2023-06-22T06:11:15;23.10;99.90
5055;DHT22;13829;48.990;8.346;2023-06-22T06:13:41;23.20;99.90
5055;DHT22;13829;48.990;8.346;2023-06-22T06:16:10;23.50;99.90
5055;DHT22;13829;48.990;8.346;2023-06-22T06:18:37;23.70;99.90
5055;DHT22;13829;48.990;8.346;2023-06-22T06:21:04;23.90;99.90
5055;DHT22;13829;48.990;8.346;2023-06-22T06:23:31;24.20;99.90
5055;DHT22;13829;48.990;8.346;2023-06-22T06:25:58;24.20;99.90
5055;DHT22;13829;48.990;8.346;2023-06-22T06:28:25;24.90;99.90
5055;DHT22;13829;48.990;8.346;2023-06-22T06:30:51;25.60;99.90
5055;DHT22;13829;48.990;8.346;2023-06-22T06:33:20;26.00;99.90
5055;DHT22;13829;48.990;8.346;2023-06-22T06:35:47;26.20;99.90
5055;DHT22;13829;48.990;8.346;2023-06-22T06:38:14;26.80;99.90
5055;DHT22;13829;48.990;8.346;2023-06-22T06:40:41;27.60;99.90
5055;DHT22;13829;48.990;8.346;2023-06-22T06:43:08;28.10;99.90
5055;DHT22;13829;48.990;8.346;2023-06-22T06:45:35;28.40;99.90
5055;DHT22;13829;48.990;8.346;2023-06-22T06:48:02;28.90;99.90
5055;DHT22;13829;48.990;8.346;2023-06-22T06:50:32;29.20;99.90
5055;DHT22;13829;48.990;8.346;2023-06-22T06:52:59;29.20;99.90
5055;DHT22;13829;48.990;8.346;2023-06-22T06:55:26;28.70;99.90
5055;DHT22;13829;48.990;8.346;2023-06-22T06:57:54;28.50;99.90
5055;DHT22;13829;48.990;8.346;2023-06-22T07:00:21;28.40;99.90
5055;DHT22;13829;48.990;8.346;2023-06-22T07:02:48;28.40;99.90
5055;DHT22;13829;48.990;8.346;2023-06-22T07:05:15;28.90;99.90
5055;DHT22;13829;48.990;8.346;2023-06-22T07:07:43;28.90;99.90
5055;DHT22;13829;48.990;8.346;2023-06-22T07:10:10;29.20;99.90
5055;DHT22;13829;48.990;8.346;2023-06-22T07:12:37;29.90;99.90
5055;DHT22;13829;48.990;8.346;2023-06-22T07:15:06;29.80;99.90
5055;DHT22;13829;48.990;8.346;2023-06-22T07:17:35;30.40;99.70
5055;DHT22;13829;48.990;8.346;2023-06-22T07:20:02;30.40;99.70
5055;DHT22;13829;48.990;8.346;2023-06-22T07:22:33;30.70;99.30
5055;DHT22;13829;48.990;8.346;2023-06-22T07:25:02;31.20;98.30
5055;DHT22;13829;48.990;8.346;2023-06-22T07:27:35;31.50;98.10
5055;DHT22;13829;48.990;8.346;2023-06-22T07:30:05;31.40;96.50
5055;DHT22;13829;48.990;8.346;2023-06-22T07:32:32;31.50;96.90
5055;DHT22;13829;48.990;8.346;2023-06-22T07:34:59;31.50;96.30
5055;DHT22;13829;48.990;8.346;2023-06-22T07:37:28;31.40;96.50
5055;DHT22;13829;48.990;8.346;2023-06-22T07:39:57;31.50;95.30
5055;DHT22;13829;48.990;8.346;2023-06-22T07:42:26;31.50;94.90
5055;DHT22;13829;48.990;8.346;2023-06-22T07:44:58;31.70;94.70
5055;DHT22;13829;48.990;8.346;2023-06-22T07:47:25;31.70;94.40
5055;DHT22;13829;48.990;8.346;2023-06-22T07:49:55;31.30;94.70
5055;DHT22;13829;48.990;8.346;2023-06-22T07:52:27;31.00;95.80
5055;DHT22;13829;48.990;8.346;2023-06-22T07:54:54;31.50;95.30
5055;DHT22;13829;48.990;8.346;2023-06-22T07:57:21;31.90;94.20
5055;DHT22;13829;48.990;8.346;2023-06-22T07:59:49;32.10;93.70
5055;DHT22;13829;48.990;8.346;2023-06-22T08:02:16;32.50;93.30
5055;DHT22;13829;48.990;8.346;2023-06-22T08:04:43;32.40;92.50
5055;DHT22;13829;48.990;8.346;2023-06-22T08:07:11;32.70;92.00
5055;DHT22;13829;48.990;8.346;2023-06-22T08:09:38;33.00;92.10
5055;DHT22;13829;48.990;8.346;2023-06-22T08:12:06;32.90;91.20
5055;DHT22;13829;48.990;8.346;2023-06-22T08:14:37;33.00;91.00
5055;DHT22;13829;48.990;8.346;2023-06-22T08:17:06;33.20;90.60
5055;DHT22;13829;48.990;8.346;2023-06-22T08:19:33;33.10;90.60
5055;DHT22;13829;48.990;8.346;2023-06-22T08:22:00;32.70;89.80
5055;DHT22;13829;48.990;8.346;2023-06-22T08:24:28;32.80;90.10
5055;DHT22;13829;48.990;8.346;2023-06-22T08:26:56;32.80;90.30
5055;DHT22;13829;48.990;8.346;2023-06-22T08:29:23;33.30;91.30
5055;DHT22;13829;48.990;8.346;2023-06-22T08:31:49;33.50;88.80
5055;DHT22;13829;48.990;8.346;2023-06-22T08:34:18;33.60;89.20
5055;DHT22;13829;48.990;8.346;2023-06-22T08:36:50;33.00;88.90
5055;DHT22;13829;48.990;8.346;2023-06-22T08:39:18;32.70;90.50
5055;DHT22;13829;48.990;8.346;2023-06-22T08:41:45;32.80;90.30
5055;DHT22;13829;48.990;8.346;2023-06-22T08:44:12;32.80;89.20
5055;DHT22;13829;48.990;8.346;2023-06-22T08:46:39;32.50;90.00
5055;DHT22;13829;48.990;8.346;2023-06-22T08:49:07;32.20;90.60
5055;DHT22;13829;48.990;8.346;2023-06-22T08:51:36;32.20;90.90
5055;DHT22;13829;48.990;8.346;2023-06-22T08:54:03;31.90;90.70
5055;DHT22;13829;48.990;8.346;2023-06-22T08:56:30;31.50;91.30
5055;DHT22;13829;48.990;8.346;2023-06-22T08:58:57;31.80;92.40
5055;DHT22;13829;48.990;8.346;2023-06-22T09:01:24;32.00;92.00
5055;DHT22;13829;48.990;8.346;2023-06-22T09:03:51;31.90;90.60
5055;DHT22;13829;48.990;8.346;2023-06-22T09:06:22;31.60;91.10
5055;DHT22;13829;48.990;8.346;2023-06-22T09:08:51;31.20;92.00
5055;DHT22;13829;48.990;8.346;2023-06-22T09:11:18;31.20;91.60
5055;DHT22;13829;48.990;8.346;2023-06-22T09:13:45;31.40;91.40
5055;DHT22;13829;48.990;8.346;2023-06-22T09:16:12;31.40;91.40
5055;DHT22;13829;48.990;8.346;2023-06-22T09:18:40;32.00;92.00
5055;DHT22;13829;48.990;8.346;2023-06-22T09:21:07;32.20;91.00
5055;DHT22;13829;48.990;8.346;2023-06-22T09:23:34;32.60;92.00
5055;DHT22;13829;48.990;8.346;2023-06-22T09:26:03;32.90;90.30
5055;DHT22;13829;48.990;8.346;2023-06-22T09:28:30;32.60;90.00
5055;DHT22;13829;48.990;8.346;2023-06-22T09:30:57;32.40;90.10
5055;DHT22;13829;48.990;8.346;2023-06-22T09:33:24;32.40;91.60
5055;DHT22;13829;48.990;8.346;2023-06-22T09:35:52;32.10;90.20
5055;DHT22;13829;48.990;8.346;2023-06-22T09:38:18;32.00;90.70
5055;DHT22;13829;48.990;8.346;2023-06-22T09:40:45;32.00;92.00
5055;DHT22;13829;48.990;8.346;2023-06-22T09:43:14;32.00;92.00
5055;DHT22;13829;48.990;8.346;2023-06-22T09:45:41;31.90;91.60
5055;DHT22;13829;48.990;8.346;2023-06-22T09:48:08;32.10;91.90
5055;DHT22;13829;48.990;8.346;2023-06-22T09:50:36;32.10;90.70
5055;DHT22;13829;48.990;8.346;2023-06-22T09:53:03;31.80;91.70
5055;DHT22;13829;48.990;8.346;2023-06-22T09:55:30;31.90;90.70
5055;DHT22;13829;48.990;8.346;2023-06-22T09:57:56;31.60;91.10
5055;DHT22;13829;48.990;8.346;2023-06-22T10:00:25;31.10;91.10
5055;DHT22;13829;48.990;8.346;2023-06-22T10:02:53;30.90;91.30
5055;DHT22;13829;48.990;8.346;2023-06-22T10:05:21;30.50;92.00
5055;DHT22;13829;48.990;8.346;2023-06-22T10:07:48;30.70;93.50
5055;DHT22;13829;48.990;8.346;2023-06-22T10:10:15;30.60;92.00
5055;DHT22;13829;48.990;8.346;2023-06-22T10:12:45;30.60;92.80
5055;DHT22;13829;48.990;8.346;2023-06-22T10:15:13;30.80;92.80
5055;DHT22;13829;48.990;8.346;2023-06-22T10:17:41;30.90;93.10
5055;DHT22;13829;48.990;8.346;2023-06-22T10:20:09;30.90;92.00
5055;DHT22;13829;48.990;8.346;2023-06-22T10:22:39;30.80;92.40
5055;DHT22;13829;48.990;8.346;2023-06-22T10:25:07;30.90;92.60
5055;DHT22;13829;48.990;8.346;2023-06-22T10:27:35;30.70;92.30
5055;DHT22;13829;48.990;8.346;2023-06-22T10:30:06;30.60;92.60
5055;DHT22;13829;48.990;8.346;2023-06-22T10:32:33;30.50;92.30
5055;DHT22;13829;48.990;8.346;2023-06-22T10:35:02;30.30;92.30
5055;DHT22;13829;48.990;8.346;2023-06-22T10:37:29;30.50;93.90
5055;DHT22;13829;48.990;8.346;2023-06-22T10:39:56;30.70;93.60
5055;DHT22;13829;48.990;8.346;2023-06-22T10:42:23;30.90;93.80
5055;DHT22;13829;48.990;8.346;2023-06-22T10:44:50;30.70;92.20
5055;DHT22;13829;48.990;8.346;2023-06-22T10:47:17;30.50;92.60
5055;DHT22;13829;48.990;8.346;2023-06-22T10:49:44;30.50;92.70
5055;DHT22;13829;48.990;8.346;2023-06-22T10:52:12;30.30;92.80
5055;DHT22;13829;48.990;8.346;2023-06-22T10:54:39;30.50;93.40
5055;DHT22;13829;48.990;8.346;2023-06-22T10:57:06;30.70;93.40
5055;DHT22;13829;48.990;8.346;2023-06-22T10:59:33;30.80;94.40
5055;DHT22;13829;48.990;8.346;2023-06-22T11:02:00;30.60;92.10
5055;DHT22;13829;48.990;8.346;2023-06-22T11:04:27;30.80;92.70
5055;DHT22;13829;48.990;8.346;2023-06-22T11:06:54;30.80;92.30
5055;DHT22;13829;48.990;8.346;2023-06-22T11:09:24;31.00;93.10
5055;DHT22;13829;48.990;8.346;2023-06-22T11:11:52;31.30;93.30
5055;DHT22;13829;48.990;8.346;2023-06-22T11:14:19;31.60;93.00
5055;DHT22;13829;48.990;8.346;2023-06-22T11:16:46;31.40;92.00
5055;DHT22;13829;48.990;8.346;2023-06-22T11:19:14;31.30;92.70
5055;DHT22;13829;48.990;8.346;2023-06-22T11:21:41;31.00;92.40
5055;DHT22;13829;48.990;8.346;2023-06-22T11:24:09;31.20;92.60
5055;DHT22;13829;48.990;8.346;2023-06-22T11:26:38;31.10;92.60
5055;DHT22;13829;48.990;8.346;2023-06-22T11:29:05;31.10;92.80
5055;DHT22;13829;48.990;8.346;2023-06-22T11:31:32;31.40;93.30
5055;DHT22;13829;48.990;8.346;2023-06-22T11:33:59;31.50;92.40
5055;DHT22;13829;48.990;8.346;2023-06-22T11:36:26;31.60;92.40
5055;DHT22;13829;48.990;8.346;2023-06-22T11:38:54;31.50;92.20
5055;DHT22;13829;48.990;8.346;2023-06-22T11:41:21;31.40;92.30
5055;DHT22;13829;48.990;8.346;2023-06-22T11:43:50;31.30;92.20
5055;DHT22;13829;48.990;8.346;2023-06-22T11:46:17;31.30;92.80
5055;DHT22;13829;48.990;8.346;2023-06-22T11:48:44;31.40;93.30
5055;DHT22;13829;48.990;8.346;2023-06-22T11:51:11;31.40;93.60
5055;DHT22;13829;48.990;8.346;2023-06-22T11:53:38;31.40;94.30
5055;DHT22;13829;48.990;8.346;2023-06-22T11:56:05;31.50;94.20
5055;DHT22;13829;48.990;8.346;2023-06-22T11:58:32;31.60;93.30
5055;DHT22;13829;48.990;8.346;2023-06-22T12:01:00;31.70;93.30
5055;DHT22;13829;48.990;8.346;2023-06-22T12:03:27;31.60;92.90
5055;DHT22;13829;48.990;8.346;2023-06-22T12:05:56;31.50;92.70
5055;DHT22;13829;48.990;8.346;2023-06-22T12:08:23;31.40;92.10
5055;DHT22;13829;48.990;8.346;2023-06-22T12:10:50;31.30;92.20
5055;DHT22;13829;48.990;8.346;2023-06-22T12:13:17;31.30;93.30
5055;DHT22;13829;48.990;8.346;2023-06-22T12:15:45;31.50;93.30
5055;DHT22;13829;48.990;8.346;2023-06-22T12:18:13;31.60;93.50
5055;DHT22;13829;48.990;8.346;2023-06-22T12:20:40;31.60;94.00
5055;DHT22;13829;48.990;8.346;2023-06-22T12:23:07;31.60;93.60
5055;DHT22;13829;48.990;8.346;2023-06-22T12:25:34;31.60;93.70
5055;DHT22;13829;48.990;8.346;2023-06-22T12:28:01;31.60;93.70
5055;DHT22;13829;48.990;8.346;2023-06-22T12:30:30;31.50;93.60
5055;DHT22;13829;48.990;8.346;2023-06-22T12:32:57;31.60;94.80
5055;DHT22;13829;48.990;8.346;2023-06-22T12:35:27;31.60;94.50
5055;DHT22;13829;48.990;8.346;2023-06-22T12:37:56;31.60;94.60
5055;DHT22;13829;48.990;8.346;2023-06-22T12:40:24;31.50;94.50
5055;DHT22;13829;48.990;8.346;2023-06-22T12:42:51;31.40;94.70
5055;DHT22;13829;48.990;8.346;2023-06-22T12:45:18;31.30;94.30
5055;DHT22;13829;48.990;8.346;2023-06-22T12:47:46;31.30;95.30
5055;DHT22;13829;48.990;8.346;2023-06-22T12:50:15;31.20;95.60
5055;DHT22;13829;48.990;8.346;2023-06-22T12:52:43;31.10;95.40
5055;DHT22;13829;48.990;8.346;2023-06-22T12:55:11;31.00;95.40
5055;DHT22;13829;48.990;8.346;2023-06-22T12:57:38;30.90;95.60
5055;DHT22;13829;48.990;8.346;2023-06-22T13:00:06;31.00;95.50
5055;DHT22;13829;48.990;8.346;2023-06-22T13:02:35;31.00;95.70
5055;DHT22;13829;48.990;8.346;2023-06-22T13:05:03;30.90;95.40
5055;DHT22;13829;48.990;8.346;2023-06-22T13:07:31;30.90;95.80
5055;DHT22;13829;48.990;8.346;2023-06-22T13:09:59;30.90;96.20
5055;DHT22;13829;48.990;8.346;2023-06-22T13:12:26;30.90;96.60
5055;DHT22;13829;48.990;8.346;2023-06-22T13:14:53;31.00;96.90
5055;DHT22;13829;48.990;8.346;2023-06-22T13:17:20;31.20;97.40
5055;DHT22;13829;48.990;8.346;2023-06-22T13:19:47;31.40;96.90
5055;DHT22;13829;48.990;8.346;2023-06-22T13:22:27;31.40;95.70
5055;DHT22;13829;48.990;8.346;2023-06-22T13:24:55;31.40;95.20
5055;DHT22;13829;48.990;8.346;2023-06-22T13:27:24;31.30;94.20
5055;DHT22;13829;48.990;8.346;2023-06-22T13:29:52;31.10;94.50
5055;DHT22;13829;48.990;8.346;2023-06-22T13:32:19;31.10;94.50
5055;DHT22;13829;48.990;8.346;2023-06-22T13:34:46;30.90;94.00
5055;DHT22;13829;48.990;8.346;2023-06-22T13:37:13;30.90;94.50
5055;DHT22;13829;48.990;8.346;2023-06-22T13:39:40;30.90;95.10
5055;DHT22;13829;48.990;8.346;2023-06-22T13:42:07;31.00;95.10
5055;DHT22;13829;48.990;8.346;2023-06-22T13:44:36;30.80;94.80
5055;DHT22;13829;48.990;8.346;2023-06-22T13:47:03;30.60;95.10
5055;DHT22;13829;48.990;8.346;2023-06-22T13:49:31;30.40;95.60
5055;DHT22;13829;48.990;8.346;2023-06-22T13:51:58;30.40;96.00
5055;DHT22;13829;48.990;8.346;2023-06-22T13:54:25;30.50;96.00
5055;DHT22;13829;48.990;8.346;2023-06-22T13:56:52;30.60;95.20
5055;DHT22;13829;48.990;8.346;2023-06-22T13:59:19;30.70;94.40
5055;DHT22;13829;48.990;8.346;2023-06-22T14:01:47;30.50;94.40
5055;DHT22;13829;48.990;8.346;2023-06-22T14:04:14;30.20;94.90
5055;DHT22;13829;48.990;8.346;2023-06-22T14:06:41;29.90;95.10
5055;DHT22;13829;48.990;8.346;2023-06-22T14:09:08;29.70;95.40
5055;DHT22;13829;48.990;8.346;2023-06-22T14:11:35;29.50;95.90
5055;DHT22;13829;48.990;8.346;2023-06-22T14:14:03;29.30;96.30
5055;DHT22;13829;48.990;8.346;2023-06-22T14:16:30;29.10;96.30
5055;DHT22;13829;48.990;8.346;2023-06-22T14:18:58;29.00;96.30
5055;DHT22;13829;48.990;8.346;2023-06-22T14:21:26;28.90;96.80
5055;DHT22;13829;48.990;8.346;2023-06-22T14:23:53;28.80;97.20
5055;DHT22;13829;48.990;8.346;2023-06-22T14:26:20;28.70;97.50
5055;DHT22;13829;48.990;8.346;2023-06-22T14:28:48;28.70;98.00
5055;DHT22;13829;48.990;8.346;2023-06-22T14:31:16;28.60;98.50
5055;DHT22;13829;48.990;8.346;2023-06-22T14:33:47;28.60;98.30
5055;DHT22;13829;48.990;8.346;2023-06-22T14:36:16;28.60;99.00
5055;DHT22;13829;48.990;8.346;2023-06-22T14:38:44;28.80;99.20
5055;DHT22;13829;48.990;8.346;2023-06-22T14:41:11;28.90;99.40
5055;DHT22;13829;48.990;8.346;2023-06-22T14:43:44;29.10;99.60
5055;DHT22;13829;48.990;8.346;2023-06-22T14:46:12;29.30;98.80
5055;DHT22;13829;48.990;8.346;2023-06-22T14:48:39;29.50;98.30
5055;DHT22;13829;48.990;8.346;2023-06-22T14:51:06;29.80;98.60
5055;DHT22;13829;48.990;8.346;2023-06-22T14:53:34;30.00;98.60
5055;DHT22;13829;48.990;8.346;2023-06-22T14:56:01;30.20;98.80
5055;DHT22;13829;48.990;8.346;2023-06-22T14:58:29;30.30;99.10
5055;DHT22;13829;48.990;8.346;2023-06-22T15:00:58;30.50;99.10
5055;DHT22;13829;48.990;8.346;2023-06-22T15:03:25;30.60;98.60
5055;DHT22;13829;48.990;8.346;2023-06-22T15:05:54;30.60;98.20
5055;DHT22;13829;48.990;8.346;2023-06-22T15:08:22;30.70;99.10
5055;DHT22;13829;48.990;8.346;2023-06-22T15:10:51;30.70;98.70
5055;DHT22;13829;48.990;8.346;2023-06-22T15:13:18;30.60;98.30
5055;DHT22;13829;48.990;8.346;2023-06-22T15:15:46;30.60;98.40
5055;DHT22;13829;48.990;8.346;2023-06-22T15:18:14;30.40;97.90
5055;DHT22;13829;48.990;8.346;2023-06-22T15:20:42;30.40;98.20
5055;DHT22;13829;48.990;8.346;2023-06-22T15:23:11;30.40;98.50
5055;DHT22;13829;48.990;8.346;2023-06-22T15:25:38;30.50;98.10
5055;DHT22;13829;48.990;8.346;2023-06-22T15:28:07;30.40;97.20
5055;DHT22;13829;48.990;8.346;2023-06-22T15:30:34;30.40;96.10
5055;DHT22;13829;48.990;8.346;2023-06-22T15:33:01;30.50;96.00
5055;DHT22;13829;48.990;8.346;2023-06-22T15:35:29;30.40;96.50
5055;DHT22;13829;48.990;8.346;2023-06-22T15:37:56;30.40;96.30
5055;DHT22;13829;48.990;8.346;2023-06-22T15:40:23;30.50;96.00
5055;DHT22;13829;48.990;8.346;2023-06-22T15:42:50;30.60;96.40
5055;DHT22;13829;48.990;8.346;2023-06-22T15:45:21;30.50;95.60
5055;DHT22;13829;48.990;8.346;2023-06-22T15:47:48;30.50;96.10
5055;DHT22;13829;48.990;8.346;2023-06-22T15:50:15;30.50;95.50